Hoffman, Illinois
Current Conditions -  °F | °C
As of 3:15 PM on Friday 24 Oct 2014 (Local Time) from KENL Reporting Station
Broken Clouds Broken Clouds  
Wind Chill: 68°   Ceiling: 3200
Heat Index: 68°   Visibility: 10mi
Dew Point: 53°   Wind: 7mph
Humidity: 57%   Direction: 260°W
Pressure: 30.05"   Gusts: NA
Location:  38.54°N, 89.26°W
Report Text: KENL 242015Z AUTO 26006KT 10SM BKN032 20/11 A3005 RMK AO2 T02010114
Loading
Personal Weather Stations






























Interactive Weather Map
Tropical Storm Tracking
New forecast layout! Learn more

10-Day Weather Forecast

Advertisements
Track Severe Weather on mobile